createdAt,value
2023-04-15T00:00:58.439Z,3.63
2023-04-15T00:03:25.670Z,4.63
2023-04-15T00:05:52.764Z,3.42
2023-04-15T00:08:20.432Z,5.57
2023-04-15T00:10:47.130Z,2.88
2023-04-15T00:13:13.683Z,4.78
2023-04-15T00:15:40.650Z,3.88
2023-04-15T00:18:08.286Z,5.40
2023-04-15T00:20:35.497Z,4.53
2023-04-15T00:23:04.217Z,3.63
2023-04-15T00:25:31.496Z,4.32
2023-04-15T00:27:58.273Z,2.85
2023-04-15T00:30:25.766Z,3.00
2023-04-15T00:32:52.851Z,4.70
2023-04-15T00:35:21.820Z,3.67
2023-04-15T00:37:51.383Z,5.45
2023-04-15T00:40:19.697Z,2.85
2023-04-15T00:42:46.300Z,5.60
2023-04-15T00:45:14.091Z,5.57
2023-04-15T00:47:45.027Z,4.63
2023-04-15T00:50:13.002Z,3.60
2023-04-15T00:52:40.630Z,4.70
2023-04-15T00:55:08.158Z,3.60
2023-04-15T00:57:35.508Z,3.97
2023-04-15T01:00:02.530Z,3.15
2023-04-15T01:02:29.474Z,3.42
2023-04-15T01:04:56.758Z,3.67
2023-04-15T01:07:23.352Z,4.90
2023-04-15T01:09:50.019Z,3.63
2023-04-15T01:12:17.243Z,6.72
2023-04-15T01:14:43.891Z,3.95
2023-04-15T01:17:10.513Z,5.15
2023-04-15T01:19:37.254Z,4.75
2023-04-15T01:22:04.172Z,3.72
2023-04-15T01:24:32.297Z,8.10
2023-04-15T01:26:59.321Z,6.20
2023-04-15T01:29:26.736Z,2.67
2023-04-15T01:31:55.123Z,5.00
2023-04-15T01:34:22.312Z,4.95
2023-04-15T01:36:48.921Z,3.40
2023-04-15T01:39:15.883Z,2.95
2023-04-15T01:41:42.468Z,5.05
2023-04-15T01:44:09.220Z,3.22
2023-04-15T01:46:36.504Z,3.80
2023-04-15T01:49:03.371Z,2.58
2023-04-15T01:51:32.216Z,3.75
2023-04-15T01:53:58.943Z,4.18
2023-04-15T01:56:25.545Z,3.47
2023-04-15T01:58:52.882Z,22.60
2023-04-15T02:01:19.961Z,4.72
2023-04-15T02:03:47.897Z,4.53
2023-04-15T02:06:15.422Z,6.88
2023-04-15T02:08:42.074Z,7.60
2023-04-15T02:11:09.329Z,6.63
2023-04-15T02:13:36.348Z,4.68
2023-04-15T02:16:03.646Z,2.78
2023-04-15T02:18:30.553Z,6.28
2023-04-15T02:20:58.694Z,4.28
2023-04-15T02:23:25.817Z,6.18
2023-04-15T02:25:53.682Z,6.50
2023-04-15T02:28:21.812Z,6.05
2023-04-15T02:30:52.512Z,7.05
2023-04-15T02:33:19.416Z,4.38
2023-04-15T02:35:46.061Z,7.20
2023-04-15T02:38:14.307Z,6.05
2023-04-15T02:40:41.538Z,8.45
2023-04-15T02:43:08.133Z,5.57
2023-04-15T02:45:35.581Z,5.38
2023-04-15T02:48:06.560Z,4.97
2023-04-15T02:50:33.550Z,4.43
2023-04-15T02:53:01.698Z,5.80
2023-04-15T02:55:29.328Z,5.68
2023-04-15T02:58:01.469Z,9.82
2023-04-15T03:00:28.329Z,3.40
2023-04-15T03:02:59.537Z,2.00
2023-04-15T03:05:26.592Z,5.93
2023-04-15T03:07:53.351Z,5.53
2023-04-15T03:10:21.465Z,6.55
2023-04-15T03:12:48.903Z,7.20
2023-04-15T03:15:21.186Z,5.93
2023-04-15T03:17:51.231Z,5.55
2023-04-15T03:20:17.985Z,9.88
2023-04-15T03:22:44.786Z,8.43
2023-04-15T03:25:11.910Z,6.75
2023-04-15T03:27:39.106Z,4.00
2023-04-15T03:30:07.684Z,5.15
2023-04-15T03:32:36.690Z,5.95
2023-04-15T03:35:03.502Z,4.70
2023-04-15T03:37:30.030Z,7.47
2023-04-15T03:39:56.644Z,3.40
2023-04-15T03:42:23.417Z,4.28
2023-04-15T03:44:49.976Z,5.43
2023-04-15T03:47:16.533Z,5.13
2023-04-15T03:49:43.059Z,4.25
2023-04-15T03:52:09.658Z,6.10
2023-04-15T03:54:36.265Z,5.43
2023-04-15T03:57:03.394Z,5.07
2023-04-15T03:59:30.016Z,3.58
2023-04-15T04:01:56.697Z,4.90
2023-04-15T04:04:23.520Z,5.18
2023-04-15T04:06:50.271Z,5.43
2023-04-15T04:09:16.860Z,7.47
2023-04-15T04:11:43.492Z,3.33
2023-04-15T04:14:10.533Z,4.60
2023-04-15T04:16:37.080Z,3.53
2023-04-15T04:19:03.875Z,7.13
2023-04-15T04:21:31.031Z,8.57
2023-04-15T04:23:59.025Z,4.05
2023-04-15T04:26:25.976Z,3.50
2023-04-15T04:28:52.515Z,3.83
2023-04-15T04:31:19.111Z,4.90
2023-04-15T04:33:45.784Z,5.97
2023-04-15T04:36:12.348Z,5.30
2023-04-15T04:38:38.874Z,4.22
2023-04-15T04:41:05.472Z,4.20
2023-04-15T04:43:32.024Z,6.18
2023-04-15T04:45:58.636Z,4.45
2023-04-15T04:48:25.206Z,5.22
2023-04-15T04:50:52.163Z,3.38
2023-04-15T04:53:18.823Z,4.43
2023-04-15T04:55:45.639Z,4.10
2023-04-15T04:58:12.550Z,6.18
2023-04-15T05:00:41.137Z,3.03
2023-04-15T05:03:07.870Z,3.55
2023-04-15T05:05:35.836Z,4.75
2023-04-15T05:08:02.764Z,3.30
2023-04-15T05:10:29.496Z,3.83
2023-04-15T05:12:56.081Z,4.13
2023-04-15T05:15:22.655Z,2.80
2023-04-15T05:17:49.238Z,2.50
2023-04-15T05:20:15.925Z,3.33
2023-04-15T05:22:42.559Z,4.22
2023-04-15T05:25:09.823Z,2.90
2023-04-15T05:27:36.738Z,4.22
2023-04-15T05:30:03.492Z,2.35
2023-04-15T05:32:30.077Z,3.85
2023-04-15T05:34:56.715Z,4.70
2023-04-15T05:37:23.331Z,5.30
2023-04-15T05:39:49.906Z,4.78
2023-04-15T05:42:16.720Z,5.32
2023-04-15T05:44:43.359Z,7.85
2023-04-15T05:47:10.899Z,3.20
2023-04-15T05:49:37.491Z,3.60
2023-04-15T05:52:04.176Z,3.63
2023-04-15T05:54:31.002Z,2.83
2023-04-15T05:56:58.317Z,4.43
2023-04-15T05:59:24.890Z,5.05
2023-04-15T06:01:52.183Z,4.18
2023-04-15T06:04:18.968Z,6.38
2023-04-15T06:06:45.608Z,3.90
2023-04-15T06:09:12.254Z,2.25
2023-04-15T06:11:38.896Z,5.97
2023-04-15T06:14:05.503Z,6.82
2023-04-15T06:16:32.301Z,3.28
2023-04-15T06:18:58.975Z,5.75
2023-04-15T06:21:25.713Z,4.97
2023-04-15T06:23:52.264Z,4.22
2023-04-15T06:26:18.773Z,6.15
2023-04-15T06:28:45.530Z,6.18
2023-04-15T06:31:12.076Z,5.75
2023-04-15T06:33:39.627Z,2.67
2023-04-15T06:36:06.330Z,2.80
2023-04-15T06:38:32.878Z,7.63
2023-04-15T06:40:59.465Z,3.33
2023-04-15T06:43:26.052Z,3.90
2023-04-15T06:45:52.650Z,2.80
2023-04-15T06:48:19.240Z,4.38
2023-04-15T06:50:45.787Z,4.30
2023-04-15T06:53:12.460Z,5.65
2023-04-15T06:55:39.100Z,9.70
2023-04-15T06:58:05.826Z,13.45
2023-04-15T07:00:33.952Z,13.18
2023-04-15T07:03:03.894Z,15.18
2023-04-15T07:05:32.463Z,20.10
2023-04-15T07:07:59.081Z,10.65
2023-04-15T07:10:26.079Z,28.25
2023-04-15T07:12:52.636Z,28.23
2023-04-15T07:15:19.571Z,23.90
2023-04-15T07:17:46.344Z,13.45
2023-04-15T07:20:13.185Z,16.48
2023-04-15T07:22:40.254Z,15.70
2023-04-15T07:25:07.616Z,16.35
2023-04-15T07:27:34.173Z,15.15
2023-04-15T07:30:00.966Z,15.73
2023-04-15T07:32:27.527Z,13.15
2023-04-15T07:34:54.617Z,10.63
2023-04-15T07:37:21.231Z,12.50
2023-04-15T07:39:48.027Z,21.40
2023-04-15T07:42:15.281Z,12.48
2023-04-15T07:44:42.005Z,13.13
2023-04-15T07:47:08.567Z,9.55
2023-04-15T07:49:35.164Z,7.35
2023-04-15T07:52:01.937Z,9.98
2023-04-15T07:54:28.498Z,10.30
2023-04-15T07:56:56.063Z,10.40
2023-04-15T07:59:22.956Z,8.98
2023-04-15T08:01:50.162Z,12.18
2023-04-15T08:04:17.023Z,8.88
2023-04-15T08:06:44.187Z,8.63
2023-04-15T08:09:11.572Z,6.93
2023-04-15T08:11:38.461Z,6.07
2023-04-15T08:14:05.420Z,6.22
2023-04-15T08:16:32.709Z,6.28
2023-04-15T08:19:00.119Z,6.43
2023-04-15T08:21:27.864Z,8.40
2023-04-15T08:23:54.913Z,5.68
2023-04-15T08:26:22.234Z,6.78
2023-04-15T08:28:49.538Z,5.60
2023-04-15T08:31:17.928Z,5.75
2023-04-15T08:33:45.858Z,4.22
2023-04-15T08:36:13.982Z,3.42
2023-04-15T08:38:41.563Z,4.40
2023-04-15T08:41:15.165Z,5.55
2023-04-15T08:43:54.321Z,4.45
2023-04-15T08:46:22.689Z,4.07
2023-04-15T08:48:50.393Z,3.60
2023-04-15T08:51:18.806Z,3.85
2023-04-15T08:53:47.624Z,2.10
2023-04-15T08:56:18.804Z,2.00
2023-04-15T08:58:48.602Z,4.38
2023-04-15T09:01:16.030Z,2.35
2023-04-15T09:03:43.237Z,2.65
2023-04-15T09:06:10.091Z,3.08
2023-04-15T09:08:36.867Z,2.15
2023-04-15T09:11:04.208Z,2.75
2023-04-15T09:13:32.162Z,3.10
2023-04-15T09:15:59.031Z,4.82
2023-04-15T09:18:36.155Z,3.08
2023-04-15T09:21:06.884Z,3.42
2023-04-15T09:23:34.246Z,3.70
2023-04-15T09:26:02.490Z,4.90
2023-04-15T09:28:29.690Z,2.03
2023-04-15T09:30:57.923Z,2.72
2023-04-15T09:33:27.232Z,3.13
2023-04-15T09:35:58.513Z,2.72
2023-04-15T09:38:25.697Z,3.03
2023-04-15T09:40:55.713Z,3.22
2023-04-15T09:43:23.088Z,4.72
2023-04-15T09:45:53.285Z,2.03
2023-04-15T09:48:27.459Z,2.83
2023-04-15T09:50:57.872Z,6.45
2023-04-15T09:53:25.721Z,4.68
2023-04-15T09:55:54.715Z,5.30
2023-04-15T09:58:29.855Z,5.35
2023-04-15T10:00:58.824Z,1.52
2023-04-15T10:03:31.666Z,3.92
2023-04-15T10:06:00.238Z,2.38
2023-04-15T10:08:33.724Z,3.10
2023-04-15T10:11:04.679Z,1.92
2023-04-15T10:13:37.222Z,2.72
2023-04-15T10:16:19.588Z,4.28
2023-04-15T10:18:50.722Z,3.15
2023-04-15T10:21:19.008Z,6.68
2023-04-15T10:23:46.372Z,2.60
2023-04-15T10:26:17.835Z,4.07
2023-04-15T10:31:15.299Z,1.95
2023-04-15T10:33:48.659Z,3.13
2023-04-15T10:36:16.902Z,3.92
2023-04-15T10:38:47.565Z,3.28
2023-04-15T10:41:14.799Z,5.00
2023-04-15T10:43:54.149Z,3.17
2023-04-15T10:46:24.078Z,4.90
2023-04-15T10:48:52.546Z,3.67
2023-04-15T10:51:30.719Z,2.58
2023-04-15T10:53:59.531Z,2.55
2023-04-15T10:56:28.813Z,3.05
2023-04-15T10:58:55.727Z,3.63
2023-04-15T11:01:25.233Z,2.60
2023-04-15T11:03:52.356Z,5.22
2023-04-15T11:06:19.327Z,2.78
2023-04-15T11:08:56.797Z,5.03
2023-04-15T11:11:23.600Z,4.88
2023-04-15T11:13:54.797Z,4.03
2023-04-15T11:16:21.879Z,2.42
2023-04-15T11:18:58.288Z,3.63
2023-04-15T11:21:26.616Z,2.08
2023-04-15T11:23:53.460Z,3.10
2023-04-15T11:26:27.178Z,5.00
2023-04-15T11:28:54.873Z,2.33
2023-04-15T11:31:23.968Z,2.58
2023-04-15T11:33:55.231Z,2.33
2023-04-15T11:36:24.681Z,3.20
2023-04-15T11:38:51.544Z,2.10
2023-04-15T11:41:22.882Z,5.25
2023-04-15T11:43:50.794Z,2.38
2023-04-15T11:46:17.923Z,2.83
2023-04-15T11:48:47.124Z,1.42
2023-04-15T11:51:23.139Z,2.83
2023-04-15T11:53:52.156Z,2.90
2023-04-15T11:56:24.081Z,1.42
2023-04-15T11:58:57.227Z,2.58
2023-04-15T12:01:35.200Z,2.50
2023-04-15T12:04:04.021Z,3.10
2023-04-15T12:06:35.244Z,2.20
2023-04-15T12:09:14.497Z,2.58
2023-04-15T12:11:44.424Z,9.75
2023-04-15T12:14:25.023Z,4.93
2023-04-15T12:16:54.891Z,3.03
2023-04-15T12:19:27.600Z,4.00
2023-04-15T12:22:00.805Z,4.05
2023-04-15T12:24:31.082Z,6.10
2023-04-15T12:27:01.988Z,5.13
2023-04-15T12:29:30.283Z,3.55
2023-04-15T12:32:07.781Z,4.35
2023-04-15T12:34:36.861Z,2.65
2023-04-15T12:37:06.304Z,3.35
2023-04-15T12:39:36.648Z,4.10
2023-04-15T12:42:04.483Z,3.67
2023-04-15T12:44:33.213Z,2.58
2023-04-15T12:47:00.520Z,4.15
2023-04-15T12:49:28.066Z,2.65
2023-04-15T12:51:57.232Z,3.00
2023-04-15T12:54:24.018Z,2.88
2023-04-15T12:56:51.583Z,3.55
2023-04-15T12:59:19.049Z,5.88
2023-04-15T13:01:47.417Z,5.45
2023-04-15T13:04:15.634Z,3.42
2023-04-15T13:06:43.447Z,3.28
2023-04-15T13:09:12.744Z,4.65
2023-04-15T13:11:52.964Z,4.47
2023-04-15T13:14:31.847Z,3.70
2023-04-15T13:16:59.272Z,3.60
2023-04-15T13:19:26.741Z,3.05
2023-04-15T13:21:53.645Z,3.63
2023-04-15T13:24:20.411Z,2.95
2023-04-15T13:26:49.691Z,2.63
2023-04-15T13:29:17.145Z,4.68
2023-04-15T13:31:43.904Z,4.05
2023-04-15T13:34:11.024Z,3.47
2023-04-15T13:36:37.771Z,2.38
2023-04-15T13:39:05.607Z,2.85
2023-04-15T13:41:32.315Z,3.28
2023-04-15T13:43:59.101Z,6.97
2023-04-15T13:46:26.205Z,2.78
2023-04-15T13:48:53.541Z,2.50
2023-04-15T13:51:20.476Z,4.03
2023-04-15T13:53:47.273Z,4.10
2023-04-15T13:56:14.096Z,3.90
2023-04-15T13:58:41.580Z,5.50
2023-04-15T14:01:08.462Z,5.10
2023-04-15T14:03:36.601Z,3.97
2023-04-15T14:06:04.317Z,3.08
2023-04-15T14:08:31.699Z,2.22
2023-04-15T14:10:58.522Z,1.65
2023-04-15T14:13:25.388Z,3.10
2023-04-15T14:15:52.465Z,2.22
2023-04-15T14:18:19.457Z,2.58
2023-04-15T14:20:47.021Z,2.30
2023-04-15T14:23:13.872Z,3.42
2023-04-15T14:25:40.667Z,3.55
2023-04-15T14:28:07.625Z,2.75
2023-04-15T14:30:35.457Z,2.53
2023-04-15T14:33:02.565Z,2.95
2023-04-15T14:35:29.518Z,2.95
2023-04-15T14:37:57.674Z,6.65
2023-04-15T14:40:24.706Z,5.03
2023-04-15T14:42:51.845Z,2.47
2023-04-15T14:45:18.907Z,3.60
2023-04-15T14:47:46.925Z,2.65
2023-04-15T14:50:13.718Z,2.53
2023-04-15T14:52:40.981Z,3.90
2023-04-15T14:55:12.666Z,1.98
2023-04-15T14:57:41.681Z,3.60
2023-04-15T15:00:10.578Z,1.10
2023-04-15T15:02:40.466Z,2.05
2023-04-15T15:05:08.904Z,6.10
2023-04-15T15:07:38.259Z,2.50
2023-04-15T15:10:06.237Z,2.00
2023-04-15T15:12:33.686Z,4.35
2023-04-15T15:15:03.003Z,7.05
2023-04-15T15:17:32.004Z,5.05
2023-04-15T15:19:58.830Z,4.40
2023-04-15T15:22:26.267Z,1.55
2023-04-15T15:24:53.722Z,5.07
2023-04-15T15:27:20.859Z,6.38
2023-04-15T15:29:47.787Z,2.35
2023-04-15T15:32:14.723Z,9.48
2023-04-15T15:34:41.514Z,3.20
2023-04-15T15:37:08.605Z,6.40
2023-04-15T15:39:36.762Z,4.68
2023-04-15T15:42:04.290Z,4.00
2023-04-15T15:44:32.981Z,3.55
2023-04-15T15:47:03.121Z,5.55
2023-04-15T15:49:31.189Z,4.60
2023-04-15T15:51:58.199Z,7.05
2023-04-15T15:54:25.312Z,3.05
2023-04-15T15:56:54.288Z,4.18
2023-04-15T15:59:21.157Z,4.22
2023-04-15T16:01:48.322Z,4.47
2023-04-15T16:04:17.540Z,3.30
2023-04-15T16:06:47.828Z,6.95
2023-04-15T16:09:14.700Z,6.40
2023-04-15T16:11:41.947Z,5.85
2023-04-15T16:14:09.457Z,2.95
2023-04-15T16:16:37.242Z,6.15
2023-04-15T16:19:04.819Z,3.67
2023-04-15T16:21:34.455Z,6.20
2023-04-15T16:24:02.451Z,4.35
2023-04-15T16:26:32.109Z,3.78
2023-04-15T16:28:59.353Z,5.93
2023-04-15T16:31:26.947Z,4.57
2023-04-15T16:33:53.782Z,2.78
2023-04-15T16:36:21.228Z,5.13
2023-04-15T16:38:49.222Z,6.05
2023-04-15T16:41:19.176Z,6.75
2023-04-15T16:43:46.291Z,5.47
2023-04-15T16:46:13.086Z,5.55
2023-04-15T16:48:40.401Z,6.18
2023-04-15T16:51:07.553Z,7.78
2023-04-15T16:53:35.748Z,4.82
2023-04-15T16:56:02.997Z,5.25
2023-04-15T16:58:31.194Z,5.10
2023-04-15T17:00:59.023Z,2.80
2023-04-15T17:03:26.399Z,3.38
2023-04-15T17:05:54.032Z,8.52
2023-04-15T17:08:21.844Z,7.72
2023-04-15T17:10:49.731Z,4.50
2023-04-15T17:13:22.571Z,6.53
2023-04-15T17:15:51.345Z,9.32
2023-04-15T17:18:19.146Z,6.28
2023-04-15T17:20:46.338Z,14.52
2023-04-15T17:23:16.152Z,11.25
2023-04-15T17:25:42.900Z,4.65
2023-04-15T17:28:10.834Z,4.88
2023-04-15T17:30:37.744Z,7.90
2023-04-15T17:33:57.469Z,7.40
2023-04-15T17:35:51.400Z,6.65
2023-04-15T17:38:18.270Z,7.57
2023-04-15T17:40:45.263Z,4.78
2023-04-15T17:43:12.009Z,3.30
2023-04-15T17:45:38.934Z,6.55
2023-04-15T17:48:05.830Z,4.78
2023-04-15T17:50:32.680Z,5.35
2023-04-15T17:53:01.585Z,8.10
2023-04-15T17:55:28.603Z,5.20
2023-04-15T17:57:55.719Z,5.45
2023-04-15T18:00:22.727Z,5.18
2023-04-15T18:02:50.727Z,6.97
2023-04-15T18:05:19.862Z,3.00
2023-04-15T18:07:46.989Z,4.38
2023-04-15T18:10:14.160Z,3.75
2023-04-15T18:12:41.158Z,3.25
2023-04-15T18:15:09.606Z,4.13
2023-04-15T18:17:36.619Z,5.90
2023-04-15T18:20:04.035Z,4.68
2023-04-15T18:22:30.803Z,5.65
2023-04-15T18:25:04.110Z,4.07
2023-04-15T18:27:38.978Z,4.18
2023-04-15T18:30:12.491Z,4.38
2023-04-15T18:32:39.838Z,3.25
2023-04-15T18:35:07.081Z,2.97
2023-04-15T18:37:34.325Z,6.22
2023-04-15T18:40:01.549Z,6.20
2023-04-15T18:42:28.850Z,8.95
2023-04-15T18:44:55.776Z,5.13
2023-04-15T18:47:23.828Z,3.97
2023-04-15T18:49:52.123Z,3.58
2023-04-15T18:52:19.146Z,5.47
2023-04-15T18:54:45.963Z,3.83
2023-04-15T18:57:12.763Z,3.15
2023-04-15T18:59:39.770Z,3.10
2023-04-15T19:02:07.557Z,2.25
2023-04-15T19:04:34.810Z,6.97
2023-04-15T19:07:02.082Z,3.47
2023-04-15T19:09:29.408Z,4.85
2023-04-15T19:11:57.117Z,4.43
2023-04-15T19:14:23.972Z,2.70
2023-04-15T19:16:51.155Z,3.33
2023-04-15T19:19:18.423Z,5.55
2023-04-15T19:21:50.378Z,2.97
2023-04-15T19:24:18.213Z,2.35
2023-04-15T19:26:48.588Z,3.60
2023-04-15T19:29:15.745Z,3.38
2023-04-15T19:31:42.885Z,3.13
2023-04-15T19:34:09.854Z,3.10
2023-04-15T19:36:36.771Z,4.90
2023-04-15T19:39:03.722Z,4.10
2023-04-15T19:41:44.384Z,5.43
2023-04-15T19:44:15.149Z,3.90
2023-04-15T19:46:45.271Z,4.70
2023-04-15T19:49:12.488Z,3.25
2023-04-15T19:51:39.194Z,5.65
2023-04-15T19:54:06.063Z,5.82
2023-04-15T19:56:34.410Z,4.05
2023-04-15T19:59:02.165Z,4.97
2023-04-15T20:01:29.131Z,4.18
2023-04-15T20:03:56.353Z,3.42
2023-04-15T20:06:23.874Z,6.43
2023-04-15T20:08:51.844Z,3.50
2023-04-15T20:11:19.098Z,2.60
2023-04-15T20:13:48.241Z,2.55
2023-04-15T20:16:16.840Z,2.42
2023-04-15T20:18:45.056Z,5.15
2023-04-15T20:21:13.989Z,2.65
2023-04-15T20:23:44.579Z,3.70
2023-04-15T20:26:12.119Z,3.47
2023-04-15T20:28:39.079Z,2.10
2023-04-15T20:31:06.429Z,2.22
2023-04-15T20:33:33.432Z,1.50
2023-04-15T20:36:00.335Z,2.70
2023-04-15T20:38:27.365Z,1.75
2023-04-15T20:40:54.507Z,2.40
2023-04-15T20:43:26.485Z,3.92
2023-04-15T20:46:02.147Z,3.15
2023-04-15T20:48:34.376Z,2.80
2023-04-15T20:51:03.425Z,3.15
2023-04-15T20:53:31.759Z,2.15
2023-04-15T20:56:02.122Z,3.05
2023-04-15T20:58:31.750Z,3.42
2023-04-15T21:01:02.312Z,2.28
2023-04-15T21:03:30.060Z,2.30
2023-04-15T21:05:57.206Z,2.30
2023-04-15T21:08:29.796Z,2.15
2023-04-15T21:10:57.657Z,2.45
2023-04-15T21:13:24.532Z,2.25
2023-04-15T21:15:54.061Z,2.40
2023-04-15T21:18:22.232Z,3.17
2023-04-15T21:21:02.278Z,3.20
2023-04-15T21:23:35.884Z,3.58
2023-04-15T21:26:03.073Z,2.83
2023-04-15T21:28:30.063Z,2.42
2023-04-15T21:30:57.558Z,2.40
2023-04-15T21:33:24.374Z,4.00
2023-04-15T21:35:51.452Z,2.75
2023-04-15T21:38:18.219Z,3.45
2023-04-15T21:40:45.037Z,2.58
2023-04-15T21:43:11.986Z,3.60
2023-04-15T21:45:39.574Z,1.88
2023-04-15T21:48:08.368Z,2.53
2023-04-15T21:50:38.732Z,2.47
2023-04-15T21:53:08.139Z,2.70
2023-04-15T21:55:36.143Z,3.38
2023-04-15T21:58:02.967Z,2.55
2023-04-15T22:00:29.905Z,2.70
2023-04-15T22:02:57.100Z,3.47
2023-04-15T22:05:26.277Z,3.30
2023-04-15T22:07:53.217Z,2.53
2023-04-15T22:10:21.165Z,3.88
2023-04-15T22:12:48.146Z,3.10
2023-04-15T22:15:15.412Z,3.42
2023-04-15T22:17:42.347Z,3.22
2023-04-15T22:20:09.805Z,4.35
2023-04-15T22:22:43.814Z,3.75
2023-04-15T22:25:11.880Z,3.35
2023-04-15T22:27:38.602Z,3.97
2023-04-15T22:30:06.075Z,4.07
2023-04-15T22:32:32.914Z,4.57
2023-04-15T22:34:59.682Z,6.70
2023-04-15T22:37:30.493Z,6.07
2023-04-15T22:39:57.722Z,4.93
2023-04-15T22:42:24.876Z,4.53
2023-04-15T22:44:51.741Z,5.57
2023-04-15T22:47:20.792Z,7.28
2023-04-15T22:49:47.561Z,4.70
2023-04-15T22:52:23.444Z,4.18
2023-04-15T22:54:54.179Z,4.78
2023-04-15T22:57:20.893Z,4.70
2023-04-15T22:59:47.678Z,4.60
2023-04-15T23:02:14.598Z,4.05
2023-04-15T23:04:41.734Z,5.30
2023-04-15T23:07:08.691Z,3.78
2023-04-15T23:09:35.614Z,5.78
2023-04-15T23:12:03.672Z,4.88
2023-04-15T23:14:30.960Z,4.93
2023-04-15T23:16:58.066Z,5.15
2023-04-15T23:19:25.052Z,4.57
2023-04-15T23:21:51.998Z,4.60
2023-04-15T23:24:18.797Z,5.10
2023-04-15T23:26:45.619Z,4.40
2023-04-15T23:29:12.539Z,5.43
2023-04-15T23:31:41.486Z,3.88
2023-04-15T23:34:10.940Z,4.93
2023-04-15T23:36:37.704Z,5.50
2023-04-15T23:39:04.609Z,4.93
2023-04-15T23:41:31.473Z,3.83
2023-04-15T23:43:58.235Z,4.97
2023-04-15T23:46:24.983Z,4.78
2023-04-15T23:48:51.678Z,5.95
2023-04-15T23:51:18.400Z,4.82
2023-04-15T23:53:45.200Z,4.78
2023-04-15T23:56:12.007Z,5.97
2023-04-15T23:58:38.702Z,4.85
